Time,TemperatureF,DewpointF,PressureIn,WindDirection,WindDirectionDegrees,WindSpeedMPH,WindSpeedGustMPH,Humidity,HourlyPrecipIn,Conditions,Clouds,dailyrainin,SoftwareType,DateUTC
2013-02-04 00:00:00,17.4,11.7,29.77,East,96,0.0,0.0,78,0.00,,,0.01,VWS V14.01,2013-02-04 05:00:00,
2013-02-04 00:01:00,17.4,11.7,29.77,East,96,0.0,0.0,78,0.00,,,0.01,VWS V14.01,2013-02-04 05:01:00,
2013-02-04 00:03:00,17.3,11.3,29.77,East,96,0.0,0.0,77,0.00,,,0.01,VWS V14.01,2013-02-04 05:03:00,
2013-02-04 00:08:00,17.1,11.1,29.77,East,96,0.0,0.0,77,0.00,,,0.00,VWS V14.01,2013-02-04 05:08:00,
2013-02-04 00:13:00,17.0,10.8,29.77,East,96,0.0,1.0,76,0.00,,,0.00,VWS V14.01,2013-02-04 05:13:00,
2013-02-04 00:18:00,17.0,10.8,29.77,East,96,0.0,0.0,76,0.00,,,0.00,VWS V14.01,2013-02-04 05:18:00,
2013-02-04 00:23:00,17.0,10.5,29.77,East,96,0.0,0.0,75,0.00,,,0.00,VWS V14.01,2013-02-04 05:23:00,
2013-02-04 00:28:00,17.1,10.9,29.77,East,96,0.0,0.0,76,0.00,,,0.00,VWS V14.01,2013-02-04 05:28:00,
2013-02-04 00:33:00,17.1,11.1,29.77,East,96,0.0,0.0,77,0.00,,,0.00,VWS V14.01,2013-02-04 05:33:00,
2013-02-04 00:38:00,17.1,11.4,29.77,East,96,0.0,0.0,78,0.00,,,0.00,VWS V14.01,2013-02-04 05:38:00,
2013-02-04 00:43:00,17.1,11.7,29.77,East,96,0.0,0.0,79,0.00,,,0.00,VWS V14.01,2013-02-04 05:43:00,
2013-02-04 00:48:00,17.0,11.9,29.77,East,96,0.0,0.0,80,0.00,,,0.00,VWS V14.01,2013-02-04 05:48:00,
2013-02-04 00:53:00,16.9,11.8,29.76,East,96,0.0,0.0,80,0.00,,,0.00,VWS V14.01,2013-02-04 05:53:00,
2013-02-04 00:58:00,16.8,12.0,29.76,East,96,0.0,0.0,81,0.00,,,0.00,VWS V14.01,2013-02-04 05:58:00,
2013-02-04 01:03:00,16.8,12.3,29.76,East,96,0.0,0.0,82,0.00,,,0.00,VWS V14.01,2013-02-04 06:03:00,
2013-02-04 01:08:00,16.9,12.6,29.76,East,96,0.0,0.0,83,0.00,,,0.00,VWS V14.01,2013-02-04 06:08:00,
2013-02-04 01:13:00,17.0,12.7,29.76,East,96,0.0,0.0,83,0.00,,,0.00,VWS V14.01,2013-02-04 06:13:00,
2013-02-04 01:18:00,16.9,12.6,29.76,East,96,0.0,0.0,83,0.00,,,0.00,VWS V14.01,2013-02-04 06:18:00,
2013-02-04 01:23:00,16.8,12.5,29.76,East,96,0.0,0.0,83,0.00,,,0.00,VWS V14.01,2013-02-04 06:23:00,
2013-02-04 01:28:00,16.8,12.8,29.76,East,96,0.0,0.0,84,0.00,,,0.00,VWS V14.01,2013-02-04 06:28:00,
2013-02-04 01:33:00,16.8,12.8,29.76,East,96,0.0,0.0,84,0.00,,,0.00,VWS V14.01,2013-02-04 06:33:00,
2013-02-04 01:38:00,16.8,12.8,29.76,East,96,0.0,0.0,84,0.00,,,0.00,VWS V14.01,2013-02-04 06:38:00,
2013-02-04 01:43:00,16.7,12.7,29.76,East,96,0.0,0.0,84,0.00,,,0.00,VWS V14.01,2013-02-04 06:43:00,
2013-02-04 01:48:00,16.7,13.0,29.76,East,96,0.0,0.0,85,0.00,,,0.00,VWS V14.01,2013-02-04 06:48:00,
2013-02-04 01:53:00,16.8,13.1,29.76,East,96,0.0,0.0,85,0.00,,,0.00,VWS V14.01,2013-02-04 06:53:00,
2013-02-04 01:58:00,16.8,13.4,29.76,East,96,0.0,0.0,86,0.00,,,0.00,VWS V14.01,2013-02-04 06:58:00,
2013-02-04 02:03:00,16.9,13.4,29.76,East,96,0.0,0.0,86,0.00,,,0.00,VWS V14.01,2013-02-04 07:03:00,
2013-02-04 02:08:00,16.8,13.4,29.76,East,96,0.0,1.0,86,0.00,,,0.00,VWS V14.01,2013-02-04 07:08:00,
2013-02-04 02:13:00,16.8,13.4,29.76,East,96,0.0,1.0,86,0.00,,,0.00,VWS V14.01,2013-02-04 07:13:00,
2013-02-04 02:18:00,16.8,13.6,29.76,East,96,0.0,0.0,87,0.00,,,0.00,VWS V14.01,2013-02-04 07:18:00,
2013-02-04 02:23:00,16.8,13.6,29.75,East,96,0.0,1.0,87,0.00,,,0.00,VWS V14.01,2013-02-04 07:23:00,
2013-02-04 02:28:00,16.9,13.7,29.75,East,96,0.0,0.0,87,0.00,,,0.00,VWS V14.01,2013-02-04 07:28:00,
2013-02-04 02:33:00,16.8,13.9,29.75,East,96,0.0,0.0,88,0.00,,,0.00,VWS V14.01,2013-02-04 07:33:00,
2013-02-04 02:38:00,16.7,13.8,29.75,East,96,0.0,1.0,88,0.00,,,0.00,VWS V14.01,2013-02-04 07:38:00,
2013-02-04 02:43:00,16.8,14.1,29.75,East,96,0.0,1.0,89,0.00,,,0.00,VWS V14.01,2013-02-04 07:43:00,
2013-02-04 02:48:00,16.7,13.8,29.75,East,96,0.0,1.0,88,0.00,,,0.00,VWS V14.01,2013-02-04 07:48:00,
2013-02-04 02:53:00,16.7,13.8,29.75,East,96,0.0,1.0,88,0.00,,,0.00,VWS V14.01,2013-02-04 07:53:00,
2013-02-04 02:58:00,16.5,13.8,29.75,East,96,0.0,0.0,89,0.00,,,0.00,VWS V14.01,2013-02-04 07:58:00,
2013-02-04 03:03:00,16.6,13.9,29.75,East,96,0.0,1.0,89,0.00,,,0.00,VWS V14.01,2013-02-04 08:03:00,
2013-02-04 03:08:00,16.7,14.0,29.75,East,96,1.0,2.0,89,0.00,,,0.00,VWS V14.01,2013-02-04 08:08:00,
2013-02-04 03:13:00,16.6,13.9,29.75,NW,310,1.0,2.0,89,0.00,,,0.00,VWS V14.01,2013-02-04 08:13:00,
2013-02-04 03:18:00,16.6,13.9,29.75,WSW,244,0.0,3.0,89,0.00,,,0.00,VWS V14.01,2013-02-04 08:18:00,
2013-02-04 03:23:00,16.6,13.9,29.75,SW,224,0.0,3.0,89,0.00,,,0.00,VWS V14.01,2013-02-04 08:23:00,
2013-02-04 03:27:00,16.7,13.8,29.75,West,277,0.0,3.0,88,0.00,,,0.00,VWS V14.01,2013-02-04 08:27:00,
2013-02-04 03:32:00,16.7,13.5,29.75,WNW,288,3.0,8.0,87,0.00,,,0.00,VWS V14.01,2013-02-04 08:32:00,
2013-02-04 03:38:00,16.8,13.6,29.75,West,279,2.0,4.0,87,0.00,,,0.00,VWS V14.01,2013-02-04 08:38:00,
2013-02-04 03:42:00,16.8,13.4,29.75,WNW,294,0.0,6.0,86,0.00,,,0.00,VWS V14.01,2013-02-04 08:42:00,
2013-02-04 03:47:00,16.9,13.2,29.75,NW,313,1.0,7.0,85,0.00,,,0.00,VWS V14.01,2013-02-04 08:47:00,
2013-02-04 03:52:00,16.9,13.2,29.75,NW,320,3.0,7.0,85,0.00,,,0.00,VWS V14.01,2013-02-04 08:52:00,
2013-02-04 03:57:00,17.0,13.3,29.75,WNW,291,0.0,4.0,85,0.00,,,0.00,VWS V14.01,2013-02-04 08:57:00,
2013-02-04 04:02:00,17.1,13.1,29.76,WNW,295,3.0,5.0,84,0.00,,,0.00,VWS V14.01,2013-02-04 09:02:00,
2013-02-04 04:07:00,17.1,13.1,29.75,WNW,297,2.0,9.0,84,0.00,,,0.00,VWS V14.01,2013-02-04 09:07:00,
2013-02-04 04:12:00,17.2,12.9,29.75,NNW,343,1.0,9.0,83,0.00,,,0.00,VWS V14.01,2013-02-04 09:12:00,
2013-02-04 04:17:00,17.1,13.1,29.75,WNW,302,0.0,5.0,84,0.00,,,0.00,VWS V14.01,2013-02-04 09:17:00,
2013-02-04 04:22:00,17.1,13.1,29.76,West,260,0.0,5.0,84,0.00,,,0.00,VWS V14.01,2013-02-04 09:22:00,
2013-02-04 04:27:00,17.0,13.0,29.76,North,355,4.0,9.0,84,0.00,,,0.00,VWS V14.01,2013-02-04 09:27:00,
2013-02-04 04:32:00,17.0,13.0,29.76,WNW,295,7.0,9.0,84,0.00,,,0.00,VWS V14.01,2013-02-04 09:32:00,
2013-02-04 04:37:00,17.0,13.0,29.76,WNW,299,3.0,8.0,84,0.00,,,0.00,VWS V14.01,2013-02-04 09:37:00,
2013-02-04 04:42:00,17.1,12.8,29.76,North,11,7.0,8.0,83,0.00,,,0.00,VWS V14.01,2013-02-04 09:42:00,
2013-02-04 04:47:00,17.0,12.7,29.76,West,277,3.0,12.0,83,0.00,,,0.00,VWS V14.01,2013-02-04 09:47:00,
2013-02-04 04:52:00,16.9,12.4,29.76,West,275,6.0,13.0,82,0.00,,,0.00,VWS V14.01,2013-02-04 09:52:00,
2013-02-04 04:57:00,16.8,12.3,29.76,NNW,343,4.0,12.0,82,0.00,,,0.00,VWS V14.01,2013-02-04 09:57:00,
2013-02-04 05:02:00,16.7,12.2,29.76,WNW,296,14.0,15.0,82,0.00,,,0.00,VWS V14.01,2013-02-04 10:02:00,
2013-02-04 05:07:00,16.6,12.1,29.77,NW,304,5.0,10.0,82,0.00,,,0.00,VWS V14.01,2013-02-04 10:07:00,
2013-02-04 05:12:00,16.5,12.0,29.77,WNW,300,7.0,12.0,82,0.00,,,0.00,VWS V14.01,2013-02-04 10:12:00,
2013-02-04 05:17:00,16.4,12.1,29.77,North,355,3.0,7.0,83,0.00,,,0.00,VWS V14.01,2013-02-04 10:17:00,
2013-02-04 05:22:00,16.3,12.3,29.77,NE,38,5.0,9.0,84,0.00,,,0.00,VWS V14.01,2013-02-04 10:22:00,
2013-02-04 05:27:00,16.2,12.2,29.77,NNW,337,3.0,7.0,84,0.00,,,0.00,VWS V14.01,2013-02-04 10:27:00,
2013-02-04 05:32:00,16.0,12.0,29.77,North,350,4.0,11.0,84,0.00,,,0.00,VWS V14.01,2013-02-04 10:32:00,
2013-02-04 05:37:00,15.9,11.9,29.78,NW,326,6.0,8.0,84,0.00,,,0.00,VWS V14.01,2013-02-04 10:37:00,
2013-02-04 05:42:00,15.8,11.8,29.78,NNW,344,4.0,8.0,84,0.00,,,0.00,VWS V14.01,2013-02-04 10:42:00,
2013-02-04 05:47:00,15.7,11.2,29.78,NNW,343,7.0,11.0,82,0.00,,,0.00,VWS V14.01,2013-02-04 10:47:00,
2013-02-04 05:52:00,15.7,10.6,29.78,North,355,7.0,11.0,80,0.00,,,0.00,VWS V14.01,2013-02-04 10:52:00,
2013-02-04 05:57:00,15.5,10.4,29.78,West,269,2.0,6.0,80,0.00,,,0.00,VWS V14.01,2013-02-04 10:57:00,
2013-02-04 06:02:00,15.4,10.4,29.78,NNW,342,7.0,11.0,80,0.00,,,0.00,VWS V14.01,2013-02-04 11:02:00,
2013-02-04 06:07:00,15.4,10.1,29.78,West,278,7.0,11.0,79,0.00,,,0.00,VWS V14.01,2013-02-04 11:07:00,
2013-02-04 06:12:00,15.4,10.4,29.79,NW,311,6.0,11.0,80,0.00,,,0.00,VWS V14.01,2013-02-04 11:12:00,
2013-02-04 06:17:00,15.3,10.5,29.79,NW,310,1.0,6.0,81,0.00,,,0.00,VWS V14.01,2013-02-04 11:17:00,
2013-02-04 06:22:00,15.1,10.6,29.79,NW,316,6.0,8.0,82,0.00,,,0.00,VWS V14.01,2013-02-04 11:22:00,
2013-02-04 06:27:00,14.9,10.4,29.80,NNW,346,2.0,9.0,82,0.00,,,0.00,VWS V14.01,2013-02-04 11:27:00,
2013-02-04 06:32:00,14.8,10.6,29.80,West,267,2.0,9.0,83,0.00,,,0.00,VWS V14.01,2013-02-04 11:32:00,
2013-02-04 06:37:00,14.6,10.1,29.80,NNW,348,4.0,7.0,82,0.00,,,0.00,VWS V14.01,2013-02-04 11:37:00,
2013-02-04 06:42:00,14.5,10.0,29.80,NW,307,4.0,9.0,82,0.00,,,0.00,VWS V14.01,2013-02-04 11:42:00,
2013-02-04 06:47:00,14.4,9.6,29.80,WNW,297,0.0,7.0,81,0.00,,,0.00,VWS V14.01,2013-02-04 11:47:00,
2013-02-04 06:52:00,14.3,9.8,29.80,WNW,293,7.0,7.0,82,0.00,,,0.00,VWS V14.01,2013-02-04 11:52:00,
2013-02-04 06:57:00,14.3,10.1,29.80,West,269,2.0,5.0,83,0.00,,,0.00,VWS V14.01,2013-02-04 11:57:00,
2013-02-04 07:02:00,14.2,10.0,29.80,NW,305,6.0,7.0,83,0.00,,,0.00,VWS V14.01,2013-02-04 12:02:00,
2013-02-04 07:07:00,14.2,9.7,29.80,WNW,285,4.0,9.0,82,0.00,,,0.00,VWS V14.01,2013-02-04 12:07:00,
2013-02-04 07:12:00,14.3,9.6,29.80,SW,230,5.0,12.0,81,0.00,,,0.00,VWS V14.01,2013-02-04 12:12:00,
2013-02-04 07:17:00,14.4,9.6,29.81,North,11,1.0,9.0,81,0.00,,,0.00,VWS V14.01,2013-02-04 12:17:00,
2013-02-04 07:22:00,14.4,9.4,29.80,NW,316,3.0,9.0,80,0.00,,,0.00,VWS V14.01,2013-02-04 12:22:00,
2013-02-04 07:27:00,14.4,9.4,29.80,NW,309,1.0,6.0,80,0.00,,,0.00,VWS V14.01,2013-02-04 12:27:00,
2013-02-04 07:32:00,14.4,9.4,29.80,NW,319,5.0,10.0,80,0.00,,,0.00,VWS V14.01,2013-02-04 12:32:00,
2013-02-04 07:37:00,14.3,9.3,29.80,NW,309,7.0,9.0,80,0.00,,,0.00,VWS V14.01,2013-02-04 12:37:00,
2013-02-04 07:42:00,14.2,9.2,29.80,WNW,297,9.0,13.0,80,0.00,,,0.00,VWS V14.01,2013-02-04 12:42:00,
2013-02-04 07:47:00,14.1,9.1,29.80,West,278,4.0,10.0,80,0.00,,,0.00,VWS V14.01,2013-02-04 12:47:00,
2013-02-04 07:52:00,14.1,9.1,29.81,SW,223,4.0,11.0,80,0.00,,,0.00,VWS V14.01,2013-02-04 12:52:00,
2013-02-04 07:57:00,14.1,9.1,29.81,NW,323,2.0,5.0,80,0.00,,,0.00,VWS V14.01,2013-02-04 12:57:00,
2013-02-04 08:02:00,14.1,9.1,29.81,West,281,1.0,7.0,80,0.00,,,0.00,VWS V14.01,2013-02-04 13:02:00,
2013-02-04 08:07:00,14.1,9.1,29.81,NW,325,6.0,10.0,80,0.00,,,0.00,VWS V14.01,2013-02-04 13:07:00,
2013-02-04 08:12:00,14.1,9.4,29.81,NW,313,5.0,10.0,81,0.00,,,0.00,VWS V14.01,2013-02-04 13:12:00,
2013-02-04 08:17:00,14.2,9.2,29.81,NNW,327,4.0,7.0,80,0.00,,,0.00,VWS V14.01,2013-02-04 13:17:00,
2013-02-04 08:22:00,14.3,9.3,29.81,WNW,294,4.0,10.0,80,0.00,,,0.00,VWS V14.01,2013-02-04 13:22:00,
2013-02-04 08:27:00,14.3,9.3,29.81,NW,323,2.0,9.0,80,0.00,,,0.00,VWS V14.01,2013-02-04 13:27:00,
2013-02-04 08:32:00,14.4,9.1,29.81,NW,315,7.0,12.0,79,0.00,,,0.00,VWS V14.01,2013-02-04 13:32:00,
2013-02-04 08:37:00,14.6,9.0,29.81,WSW,248,5.0,9.0,78,0.00,,,0.00,VWS V14.01,2013-02-04 13:37:00,
2013-02-04 08:42:00,14.8,8.9,29.81,WNW,294,4.0,10.0,77,0.00,,,0.00,VWS V14.01,2013-02-04 13:42:00,
2013-02-04 08:47:00,15.0,9.1,29.81,WNW,300,2.0,10.0,77,0.00,,,0.00,VWS V14.01,2013-02-04 13:47:00,
2013-02-04 08:52:00,15.4,9.5,29.81,NNW,348,6.0,10.0,77,0.00,,,0.00,VWS V14.01,2013-02-04 13:52:00,
2013-02-04 08:57:00,15.3,9.1,29.81,West,267,7.0,7.0,76,0.00,,,0.00,VWS V14.01,2013-02-04 13:57:00,
2013-02-04 09:02:00,15.2,9.0,29.80,SSW,212,3.0,11.0,76,0.00,,,0.00,VWS V14.01,2013-02-04 14:02:00,
2013-02-04 09:07:00,15.2,9.0,29.80,NW,308,4.0,6.0,76,0.00,,,0.00,VWS V14.01,2013-02-04 14:07:00,
2013-02-04 09:12:00,15.1,8.9,29.80,WNW,294,10.0,10.0,76,0.00,,,0.00,VWS V14.01,2013-02-04 14:12:00,
2013-02-04 09:17:00,15.2,9.3,29.80,NW,305,3.0,6.0,77,0.00,,,0.00,VWS V14.01,2013-02-04 14:17:00,
2013-02-04 09:22:00,15.3,9.7,29.80,NW,319,2.0,7.0,78,0.00,,,0.00,VWS V14.01,2013-02-04 14:22:00,
2013-02-04 09:27:00,15.5,10.2,29.80,West,277,0.0,5.0,79,0.00,,,0.00,VWS V14.01,2013-02-04 14:27:00,
2013-02-04 09:32:00,15.7,10.4,29.80,NNW,343,2.0,5.0,79,0.00,,,0.00,VWS V14.01,2013-02-04 14:32:00,
2013-02-04 09:37:00,15.6,10.5,29.80,WNW,301,2.0,4.0,80,0.00,,,0.00,VWS V14.01,2013-02-04 14:37:00,
2013-02-04 09:42:00,15.6,10.8,29.79,WSW,246,2.0,5.0,81,0.00,,,0.00,VWS V14.01,2013-02-04 14:42:00,
2013-02-04 09:47:00,15.5,10.4,29.80,NNW,341,3.0,4.0,80,0.00,,,0.00,VWS V14.01,2013-02-04 14:47:00,
2013-02-04 09:52:00,15.5,10.4,29.79,North,5,0.0,4.0,80,0.00,,,0.00,VWS V14.01,2013-02-04 14:52:00,
2013-02-04 09:57:00,15.6,9.7,29.79,West,272,2.0,9.0,77,0.00,,,0.00,VWS V14.01,2013-02-04 14:57:00,
2013-02-04 10:02:00,15.9,9.7,29.78,NW,323,0.0,9.0,76,0.00,,,0.00,VWS V14.01,2013-02-04 15:02:00,
2013-02-04 10:07:00,16.1,9.6,29.78,NNW,332,3.0,5.0,75,0.00,,,0.00,VWS V14.01,2013-02-04 15:07:00,
2013-02-04 10:12:00,16.4,9.3,29.78,WNW,298,0.0,5.0,73,0.00,,,0.00,VWS V14.01,2013-02-04 15:12:00,
2013-02-04 10:17:00,16.9,9.8,29.78,WNW,295,3.0,6.0,73,0.00,,,0.00,VWS V14.01,2013-02-04 15:17:00,
2013-02-04 10:22:00,17.2,9.4,29.78,NW,319,3.0,6.0,71,0.00,,,0.00,VWS V14.01,2013-02-04 15:22:00,
2013-02-04 10:27:00,17.2,8.8,29.78,WSW,250,3.0,7.0,69,0.00,,,0.00,VWS V14.01,2013-02-04 15:27:00,
2013-02-04 10:32:00,17.5,8.8,29.78,NNW,339,4.0,10.0,68,0.00,,,0.00,VWS V14.01,2013-02-04 15:32:00,
2013-02-04 10:37:00,17.9,9.1,29.78,West,267,0.0,10.0,68,0.00,,,0.00,VWS V14.01,2013-02-04 15:37:00,
2013-02-04 10:42:00,17.9,8.1,29.78,North,355,6.0,12.0,65,0.00,,,0.00,VWS V14.01,2013-02-04 15:42:00,
2013-02-04 10:47:00,17.6,8.5,29.78,NNW,338,6.0,10.0,67,0.00,,,0.00,VWS V14.01,2013-02-04 15:47:00,
2013-02-04 10:52:00,17.3,8.9,29.78,WNW,300,4.0,13.0,69,0.00,,,0.00,VWS V14.01,2013-02-04 15:52:00,
2013-02-04 10:57:00,17.2,9.1,29.78,NNW,347,6.0,11.0,70,0.00,,,0.00,VWS V14.01,2013-02-04 15:57:00,
2013-02-04 11:02:00,16.9,9.4,29.78,NNW,338,8.0,12.0,72,0.00,,,0.00,VWS V14.01,2013-02-04 16:02:00,
2013-02-04 11:07:00,16.8,9.4,29.78,NNE,18,5.0,10.0,72,0.00,,,0.00,VWS V14.01,2013-02-04 16:07:00,
2013-02-04 11:12:00,16.8,8.7,29.78,NE,36,8.0,10.0,70,0.00,,,0.00,VWS V14.01,2013-02-04 16:12:00,
2013-02-04 11:17:00,17.1,7.4,29.77,North,355,8.0,12.0,65,0.00,,,0.00,VWS V14.01,2013-02-04 16:17:00,
2013-02-04 11:22:00,17.5,6.7,29.77,NW,308,9.0,18.0,62,0.00,,,0.00,VWS V14.01,2013-02-04 16:22:00,
2013-02-04 11:27:00,17.9,6.0,29.76,NW,320,8.0,10.0,59,0.00,,,0.00,VWS V14.01,2013-02-04 16:27:00,
2013-02-04 11:32:00,17.7,3.9,29.76,NW,321,10.0,22.0,54,0.00,,,0.00,VWS V14.01,2013-02-04 16:32:00,
2013-02-04 11:37:00,17.2,2.2,29.76,West,266,9.0,12.0,51,0.00,,,0.00,VWS V14.01,2013-02-04 16:37:00,
2013-02-04 11:42:00,17.3,2.3,29.76,NW,306,12.0,17.0,51,0.00,,,0.00,VWS V14.01,2013-02-04 16:42:00,
2013-02-04 11:47:00,17.5,2.5,29.76,WSW,256,7.0,12.0,51,0.00,,,0.00,VWS V14.01,2013-02-04 16:47:00,
2013-02-04 11:52:00,18.2,3.5,29.76,NNW,329,9.0,12.0,52,0.00,,,0.00,VWS V14.01,2013-02-04 16:52:00,
2013-02-04 11:57:00,18.7,3.2,29.75,NNW,335,14.0,14.0,50,0.00,,,0.00,VWS V14.01,2013-02-04 16:57:00,
2013-02-04 12:02:00,18.7,2.7,29.75,NW,311,16.0,17.0,49,0.00,,,0.00,VWS V14.01,2013-02-04 17:02:00,
2013-02-04 12:07:00,18.4,1.1,29.75,NW,321,3.0,16.0,46,0.00,,,0.00,VWS V14.01,2013-02-04 17:07:00,
2013-02-04 12:12:00,18.2,0.4,29.75,North,350,13.0,19.0,45,0.00,,,0.00,VWS V14.01,2013-02-04 17:12:00,
2013-02-04 12:17:00,18.0,0.2,29.75,North,355,4.0,16.0,45,0.00,,,0.00,VWS V14.01,2013-02-04 17:17:00,
2013-02-04 12:22:00,18.4,0.1,29.75,NW,318,7.0,16.0,44,0.00,,,0.00,VWS V14.01,2013-02-04 17:22:00,
2013-02-04 12:27:00,18.4,-0.3,29.75,WSW,238,2.0,15.0,43,0.00,,,0.00,VWS V14.01,2013-02-04 17:27:00,
2013-02-04 12:32:00,18.7,-0.1,29.75,NNW,329,8.0,15.0,43,0.00,,,0.00,VWS V14.01,2013-02-04 17:32:00,
2013-02-04 12:37:00,18.7,-0.1,29.75,West,272,5.0,13.0,43,0.00,,,0.00,VWS V14.01,2013-02-04 17:37:00,
2013-02-04 12:42:00,18.6,-1.2,29.75,NNW,327,9.0,20.0,41,0.00,,,0.00,VWS V14.01,2013-02-04 17:42:00,
2013-02-04 12:47:00,18.8,0.0,29.75,North,360,9.0,13.0,43,0.00,,,0.00,VWS V14.01,2013-02-04 17:47:00,
2013-02-04 12:52:00,19.4,1.1,29.75,SW,227,7.0,21.0,44,0.00,,,0.00,VWS V14.01,2013-02-04 17:52:00,
2013-02-04 12:57:00,19.5,0.2,29.75,West,275,5.0,13.0,42,0.00,,,0.00,VWS V14.01,2013-02-04 17:57:00,
2013-02-04 13:02:00,19.4,-1.0,29.75,NW,306,7.0,20.0,40,0.00,,,0.00,VWS V14.01,2013-02-04 18:02:00,
2013-02-04 13:07:00,18.9,-1.4,29.76,NW,307,7.0,23.0,40,0.00,,,0.00,VWS V14.01,2013-02-04 18:07:00,
2013-02-04 13:12:00,19.0,0.2,29.75,NW,315,2.0,23.0,43,0.00,,,0.00,VWS V14.01,2013-02-04 18:12:00,
2013-02-04 13:17:00,19.1,-0.2,29.75,NNW,340,8.0,14.0,42,0.00,,,0.00,VWS V14.01,2013-02-04 18:17:00,
2013-02-04 13:22:00,19.5,-0.4,29.75,NW,324,12.0,14.0,41,0.00,,,0.00,VWS V14.01,2013-02-04 18:22:00,
2013-02-04 13:27:00,19.7,-0.7,29.75,WNW,302,6.0,17.0,40,0.00,,,0.00,VWS V14.01,2013-02-04 18:27:00,
2013-02-04 13:32:00,19.5,-0.9,29.75,West,279,5.0,22.0,40,0.00,,,0.00,VWS V14.01,2013-02-04 18:32:00,
2013-02-04 13:37:00,20.0,0.1,29.75,WNW,300,7.0,15.0,41,0.00,,,0.00,VWS V14.01,2013-02-04 18:37:00,
2013-02-04 13:42:00,19.7,-0.7,29.75,NW,312,17.0,17.0,40,0.00,,,0.00,VWS V14.01,2013-02-04 18:42:00,
2013-02-04 13:47:00,20.0,-1.0,29.75,NNW,346,5.0,14.0,39,0.00,,,0.00,VWS V14.01,2013-02-04 18:47:00,
2013-02-04 13:52:00,19.9,-1.0,29.75,NNW,333,12.0,17.0,39,0.00,,,0.00,VWS V14.01,2013-02-04 18:52:00,
2013-02-04 13:57:00,19.9,-1.0,29.75,WNW,301,11.0,22.0,39,0.00,,,0.00,VWS V14.01,2013-02-04 18:57:00,
2013-02-04 14:02:00,19.8,-2.2,29.75,WNW,298,8.0,22.0,37,0.00,,,0.00,VWS V14.01,2013-02-04 19:02:00,
2013-02-04 14:07:00,20.1,-2.0,29.75,NNE,25,11.0,20.0,37,0.00,,,0.00,VWS V14.01,2013-02-04 19:07:00,
2013-02-04 14:12:00,20.6,-2.1,29.75,SW,230,4.0,20.0,36,0.00,,,0.00,VWS V14.01,2013-02-04 19:12:00,
2013-02-04 14:17:00,20.6,-3.3,29.75,North,360,15.0,18.0,34,0.00,,,0.00,VWS V14.01,2013-02-04 19:17:00,
2013-02-04 14:22:00,20.0,-5.8,29.75,NW,306,12.0,22.0,31,0.00,,,0.00,VWS V14.01,2013-02-04 19:22:00,
2013-02-04 14:27:00,20.2,-4.3,29.76,SW,219,12.0,22.0,33,0.00,,,0.00,VWS V14.01,2013-02-04 19:27:00,
2013-02-04 14:32:00,20.3,-4.8,29.76,NNE,17,1.0,22.0,32,0.00,,,0.00,VWS V14.01,2013-02-04 19:32:00,
2013-02-04 14:37:00,20.5,-4.0,29.76,NW,304,7.0,16.0,33,0.00,,,0.00,VWS V14.01,2013-02-04 19:37:00,
2013-02-04 14:42:00,20.0,-6.4,29.77,NNW,338,7.0,21.0,30,0.00,,,0.00,VWS V14.01,2013-02-04 19:42:00,
2013-02-04 14:47:00,20.2,-4.9,29.76,NNW,337,11.0,11.0,32,0.00,,,0.00,VWS V14.01,2013-02-04 19:47:00,
2013-02-04 14:52:00,20.4,-5.4,29.77,NNW,335,5.0,18.0,31,0.00,,,0.00,VWS V14.01,2013-02-04 19:52:00,
2013-02-04 14:57:00,20.4,-4.8,29.77,WNW,288,10.0,16.0,32,0.00,,,0.00,VWS V14.01,2013-02-04 19:57:00,
2013-02-04 15:02:00,20.3,-5.5,29.77,North,9,8.0,16.0,31,0.00,,,0.00,VWS V14.01,2013-02-04 20:02:00,
2013-02-04 15:07:00,20.2,-4.9,29.77,WNW,296,12.0,17.0,32,0.00,,,0.00,VWS V14.01,2013-02-04 20:07:00,
2013-02-04 15:12:00,20.1,-5.0,29.77,NNE,17,6.0,17.0,32,0.00,,,0.00,VWS V14.01,2013-02-04 20:12:00,
2013-02-04 15:17:00,20.1,-5.7,29.78,WNW,302,9.0,15.0,31,0.00,,,0.00,VWS V14.01,2013-02-04 20:17:00,
2013-02-04 15:22:00,19.9,-6.5,29.78,NNW,331,7.0,16.0,30,0.00,,,0.00,VWS V14.01,2013-02-04 20:22:00,
2013-02-04 15:27:00,20.0,-5.8,29.78,West,275,4.0,18.0,31,0.00,,,0.00,VWS V14.01,2013-02-04 20:27:00,
2013-02-04 15:32:00,19.9,-5.8,29.78,NE,38,5.0,18.0,31,0.00,,,0.00,VWS V14.01,2013-02-04 20:32:00,
2013-02-04 15:37:00,19.7,-6.0,29.78,NNW,338,8.0,18.0,31,0.00,,,0.00,VWS V14.01,2013-02-04 20:37:00,
2013-02-04 15:42:00,19.9,-5.8,29.78,NW,319,5.0,18.0,31,0.00,,,0.00,VWS V14.01,2013-02-04 20:42:00,
2013-02-04 15:47:00,20.0,-5.8,29.79,NNW,335,9.0,15.0,31,0.00,,,0.00,VWS V14.01,2013-02-04 20:47:00,
2013-02-04 15:52:00,19.7,-6.0,29.78,North,355,8.0,19.0,31,0.00,,,0.00,VWS V14.01,2013-02-04 20:52:00,
2013-02-04 15:57:00,19.5,-5.6,29.79,NW,316,9.0,17.0,32,0.00,,,0.00,VWS V14.01,2013-02-04 20:57:00,
2013-02-04 16:02:00,18.8,-6.2,29.79,North,360,6.0,17.0,32,0.00,,,0.00,VWS V14.01,2013-02-04 21:02:00,
2013-02-04 16:07:00,18.4,-7.2,29.79,NNE,17,10.0,16.0,31,0.00,,,0.00,VWS V14.01,2013-02-04 21:07:00,
2013-02-04 16:12:00,18.4,-6.5,29.78,WNW,298,9.0,18.0,32,0.00,,,0.00,VWS V14.01,2013-02-04 21:12:00,
2013-02-04 16:17:00,18.3,-6.6,29.79,NW,311,5.0,18.0,32,0.00,,,0.00,VWS V14.01,2013-02-04 21:17:00,
2013-02-04 16:22:00,18.1,-6.8,29.80,North,351,5.0,19.0,32,0.00,,,0.00,VWS V14.01,2013-02-04 21:22:00,
2013-02-04 16:27:00,18.0,-5.6,29.80,NE,48,10.0,16.0,34,0.00,,,0.00,VWS V14.01,2013-02-04 21:27:00,
2013-02-04 16:32:00,17.8,-6.4,29.80,WNW,302,10.0,22.0,33,0.00,,,0.00,VWS V14.01,2013-02-04 21:32:00,
2013-02-04 16:37:00,17.6,-5.4,29.80,NW,304,6.0,11.0,35,0.00,,,0.00,VWS V14.01,2013-02-04 21:37:00,
2013-02-04 16:42:00,17.5,-6.1,29.80,NNW,327,7.0,17.0,34,0.00,,,0.00,VWS V14.01,2013-02-04 21:42:00,
2013-02-04 16:47:00,17.3,-6.2,29.81,NW,312,12.0,16.0,34,0.00,,,0.00,VWS V14.01,2013-02-04 21:47:00,
2013-02-04 16:52:00,17.1,-5.8,29.81,West,278,8.0,18.0,35,0.00,,,0.00,VWS V14.01,2013-02-04 21:52:00,
2013-02-04 16:57:00,17.0,-5.3,29.81,NW,309,9.0,13.0,36,0.00,,,0.00,VWS V14.01,2013-02-04 21:57:00,
2013-02-04 17:02:00,16.9,-5.4,29.81,North,5,13.0,17.0,36,0.00,,,0.00,VWS V14.01,2013-02-04 22:02:00,
2013-02-04 17:07:00,16.8,-4.9,29.82,WNW,302,9.0,14.0,37,0.00,,,0.00,VWS V14.01,2013-02-04 22:07:00,
2013-02-04 17:12:00,16.7,-5.0,29.82,North,351,7.0,21.0,37,0.00,,,0.00,VWS V14.01,2013-02-04 22:12:00,
2013-02-04 17:17:00,16.6,-4.6,29.82,SW,223,10.0,17.0,38,0.00,,,0.00,VWS V14.01,2013-02-04 22:17:00,
2013-02-04 17:22:00,16.4,-4.8,29.82,North,360,8.0,19.0,38,0.00,,,0.00,VWS V14.01,2013-02-04 22:22:00,
2013-02-04 17:27:00,16.2,-4.4,29.83,WNW,298,8.0,13.0,39,0.00,,,0.00,VWS V14.01,2013-02-04 22:27:00,
2013-02-04 17:32:00,16.1,-4.5,29.83,West,264,8.0,20.0,39,0.00,,,0.00,VWS V14.01,2013-02-04 22:32:00,
2013-02-04 17:37:00,16.1,-4.5,29.83,WNW,288,7.0,14.0,39,0.00,,,0.00,VWS V14.01,2013-02-04 22:37:00,
2013-02-04 17:42:00,15.9,-4.7,29.84,NNW,348,4.0,14.0,39,0.00,,,0.00,VWS V14.01,2013-02-04 22:42:00,
2013-02-04 17:47:00,15.8,-3.7,29.84,WNW,297,4.0,9.0,41,0.00,,,0.00,VWS V14.01,2013-02-04 22:47:00,
2013-02-04 17:52:00,15.6,-4.4,29.85,NW,304,11.0,16.0,40,0.00,,,0.00,VWS V14.01,2013-02-04 22:52:00,
2013-02-04 17:57:00,15.5,-5.0,29.85,SW,220,5.0,6.0,39,0.00,,,0.00,VWS V14.01,2013-02-04 22:57:00,
2013-02-04 18:02:00,15.2,-5.8,29.85,NNE,17,2.0,19.0,38,0.00,,,0.00,VWS V14.01,2013-02-04 23:02:00,
2013-02-04 18:07:00,15.1,-5.9,29.85,WNW,303,11.0,12.0,38,0.00,,,0.00,VWS V14.01,2013-02-04 23:07:00,
2013-02-04 18:12:00,14.9,-6.1,29.85,WNW,286,14.0,16.0,38,0.00,,,0.00,VWS V14.01,2013-02-04 23:12:00,
2013-02-04 18:17:00,14.8,-5.7,29.86,NW,324,10.0,16.0,39,0.00,,,0.00,VWS V14.01,2013-02-04 23:17:00,
2013-02-04 18:22:00,14.8,-6.2,29.85,NNE,15,5.0,16.0,38,0.00,,,0.00,VWS V14.01,2013-02-04 23:22:00,
2013-02-04 18:27:00,14.8,-6.8,29.86,NNW,342,11.0,18.0,37,0.00,,,0.00,VWS V14.01,2013-02-04 23:27:00,
2013-02-04 18:32:00,14.6,-6.4,29.86,NW,317,9.0,18.0,38,0.00,,,0.00,VWS V14.01,2013-02-04 23:32:00,
2013-02-04 18:37:00,14.4,-6.6,29.86,WNW,302,14.0,14.0,38,0.00,,,0.00,VWS V14.01,2013-02-04 23:37:00,
2013-02-04 18:42:00,14.2,-6.2,29.86,North,355,8.0,15.0,39,0.00,,,0.00,VWS V14.01,2013-02-04 23:42:00,
2013-02-04 18:47:00,13.9,-5.9,29.86,NNW,338,3.0,8.0,40,0.00,,,0.00,VWS V14.01,2013-02-04 23:47:00,
2013-02-04 18:52:00,13.8,-6.0,29.87,North,5,12.0,15.0,40,0.00,,,0.00,VWS V14.01,2013-02-04 23:52:00,
2013-02-04 18:57:00,13.7,-6.1,29.87,WNW,295,3.0,9.0,40,0.00,,,0.00,VWS V14.01,2013-02-04 23:57:00,
2013-02-04 19:02:00,13.6,-5.7,29.87,NNW,344,3.0,15.0,41,0.00,,,0.00,VWS V14.01,2013-02-05 00:02:00,
2013-02-04 19:07:00,13.5,-5.3,29.87,NW,316,3.0,9.0,42,0.00,,,0.00,VWS V14.01,2013-02-05 00:07:00,
2013-02-04 19:12:00,13.3,-5.5,29.87,NW,309,4.0,13.0,42,0.00,,,0.00,VWS V14.01,2013-02-05 00:12:00,
2013-02-04 19:17:00,13.3,-5.5,29.87,NNW,331,9.0,10.0,42,0.00,,,0.00,VWS V14.01,2013-02-05 00:17:00,
2013-02-04 19:22:00,13.2,-5.1,29.87,NNE,17,10.0,12.0,43,0.00,,,0.00,VWS V14.01,2013-02-05 00:22:00,
2013-02-04 19:27:00,13.2,-5.1,29.88,WNW,300,10.0,10.0,43,0.00,,,0.00,VWS V14.01,2013-02-05 00:27:00,
2013-02-04 19:32:00,13.1,-5.7,29.88,West,271,6.0,10.0,42,0.00,,,0.00,VWS V14.01,2013-02-05 00:32:00,
2013-02-04 19:37:00,13.0,-4.8,29.88,WNW,296,5.0,7.0,44,0.00,,,0.00,VWS V14.01,2013-02-05 00:37:00,
2013-02-04 19:42:00,12.9,-4.9,29.88,North,355,6.0,10.0,44,0.00,,,0.00,VWS V14.01,2013-02-05 00:42:00,
2013-02-04 19:47:00,12.8,-5.0,29.88,North,350,0.0,8.0,44,0.00,,,0.00,VWS V14.01,2013-02-05 00:47:00,
2013-02-04 19:52:00,12.8,-5.0,29.88,WNW,286,5.0,9.0,44,0.00,,,0.00,VWS V14.01,2013-02-05 00:52:00,
2013-02-04 19:57:00,12.8,-5.0,29.88,NW,323,2.0,10.0,44,0.00,,,0.00,VWS V14.01,2013-02-05 00:57:00,
2013-02-04 20:02:00,12.7,-4.6,29.88,NW,311,1.0,10.0,45,0.00,,,0.00,VWS V14.01,2013-02-05 01:02:00,
2013-02-04 20:07:00,12.6,-4.2,29.89,North,350,4.0,11.0,46,0.00,,,0.00,VWS V14.01,2013-02-05 01:07:00,
2013-02-04 20:12:00,12.5,-3.9,29.89,North,355,2.0,11.0,47,0.00,,,0.00,VWS V14.01,2013-02-05 01:12:00,
2013-02-04 20:17:00,12.5,-3.9,29.89,SW,215,0.0,10.0,47,0.00,,,0.00,VWS V14.01,2013-02-05 01:17:00,
2013-02-04 20:22:00,12.5,-4.3,29.89,NW,311,0.0,10.0,46,0.00,,,0.00,VWS V14.01,2013-02-05 01:22:00,
2013-02-04 20:27:00,12.5,-3.9,29.89,WSW,244,0.0,9.0,47,0.00,,,0.00,VWS V14.01,2013-02-05 01:27:00,
2013-02-04 20:32:00,12.3,-3.6,29.89,West,273,2.0,9.0,48,0.00,,,0.00,VWS V14.01,2013-02-05 01:32:00,
2013-02-04 20:37:00,12.3,-3.6,29.90,North,11,0.0,1.0,48,0.00,,,0.00,VWS V14.01,2013-02-05 01:37:00,
2013-02-04 20:42:00,12.2,-3.3,29.89,North,355,7.0,8.0,49,0.00,,,0.00,VWS V14.01,2013-02-05 01:42:00,
2013-02-04 20:47:00,12.1,-3.4,29.89,NNW,343,0.0,2.0,49,0.00,,,0.00,VWS V14.01,2013-02-05 01:47:00,
2013-02-04 20:52:00,11.9,-2.7,29.89,NNW,343,0.0,2.0,51,0.00,,,0.00,VWS V14.01,2013-02-05 01:52:00,
2013-02-04 20:57:00,11.7,-2.9,29.90,NNW,343,0.0,1.0,51,0.00,,,0.00,VWS V14.01,2013-02-05 01:57:00,
2013-02-04 21:02:00,11.6,-1.4,29.90,ESE,110,2.0,4.0,55,0.00,,,0.00,VWS V14.01,2013-02-05 02:02:00,
2013-02-04 21:07:00,11.4,-1.6,29.90,ENE,64,0.0,3.0,55,0.00,,,0.00,VWS V14.01,2013-02-05 02:07:00,
2013-02-04 21:12:00,11.1,-1.1,29.90,East,90,1.0,3.0,57,0.00,,,0.00,VWS V14.01,2013-02-05 02:12:00,
2013-02-04 21:17:00,10.8,-1.1,29.90,ENE,73,4.0,4.0,58,0.00,,,0.00,VWS V14.01,2013-02-05 02:17:00,
2013-02-04 21:22:00,10.5,-1.0,29.90,ENE,62,0.0,4.0,59,0.00,,,0.00,VWS V14.01,2013-02-05 02:22:00,
2013-02-04 21:27:00,10.3,-0.8,29.91,ENE,58,0.0,2.0,60,0.00,,,0.00,VWS V14.01,2013-02-05 02:27:00,
2013-02-04 21:32:00,10.0,-1.5,29.91,NE,55,0.0,2.0,59,0.00,,,0.00,VWS V14.01,2013-02-05 02:32:00,
2013-02-04 21:37:00,9.8,-0.9,29.91,East,79,0.0,0.0,61,0.00,,,0.00,VWS V14.01,2013-02-05 02:37:00,
2013-02-04 21:42:00,9.6,-1.1,29.91,NE,38,4.0,4.0,61,0.00,,,0.00,VWS V14.01,2013-02-05 02:42:00,
2013-02-04 21:47:00,9.3,-1.1,29.91,ENE,66,2.0,2.0,62,0.00,,,0.00,VWS V14.01,2013-02-05 02:47:00,
2013-02-04 21:52:00,9.1,-1.3,29.91,NE,55,0.0,3.0,62,0.00,,,0.00,VWS V14.01,2013-02-05 02:52:00,
2013-02-04 21:57:00,8.8,-1.5,29.91,ENE,57,0.0,1.0,62,0.00,,,0.00,VWS V14.01,2013-02-05 02:57:00,
2013-02-04 22:02:00,8.5,-1.5,29.91,ENE,57,0.0,1.0,63,0.00,,,0.00,VWS V14.01,2013-02-05 03:02:00,
2013-02-04 22:07:00,8.2,-1.8,29.92,ENE,57,0.0,0.0,63,0.00,,,0.00,VWS V14.01,2013-02-05 03:07:00,
2013-02-04 22:12:00,8.0,-2.0,29.92,ESE,105,1.0,4.0,63,0.00,,,0.00,VWS V14.01,2013-02-05 03:12:00,
2013-02-04 22:17:00,7.8,-1.8,29.92,ESE,105,0.0,0.0,64,0.00,,,0.00,VWS V14.01,2013-02-05 03:17:00,
2013-02-04 22:22:00,7.7,-1.9,29.92,NE,42,0.0,2.0,64,0.00,,,0.00,VWS V14.01,2013-02-05 03:22:00,
2013-02-04 22:27:00,7.7,-1.9,29.92,NE,42,0.0,0.0,64,0.00,,,0.00,VWS V14.01,2013-02-05 03:27:00,
2013-02-04 22:32:00,7.6,-2.0,29.92,NE,42,0.0,0.0,64,0.00,,,0.00,VWS V14.01,2013-02-05 03:32:00,
2013-02-04 22:37:00,7.4,-2.2,29.92,NE,42,0.0,1.0,64,0.00,,,0.00,VWS V14.01,2013-02-05 03:37:00,
2013-02-04 22:42:00,7.2,-2.4,29.92,SSE,152,0.0,5.0,64,0.00,,,0.00,VWS V14.01,2013-02-05 03:42:00,
2013-02-04 22:47:00,7.1,-2.8,29.93,SSE,152,0.0,0.0,63,0.00,,,0.00,VWS V14.01,2013-02-05 03:47:00,
2013-02-04 22:52:00,6.9,-2.4,29.93,SSE,152,0.0,1.0,65,0.00,,,0.00,VWS V14.01,2013-02-05 03:52:00,
2013-02-04 22:57:00,6.7,-2.5,29.93,SSE,152,0.0,2.0,65,0.00,,,0.00,VWS V14.01,2013-02-05 03:57:00,
2013-02-04 23:02:00,6.7,-2.9,29.93,SSE,152,0.0,2.0,64,0.00,,,0.00,VWS V14.01,2013-02-05 04:02:00,
2013-02-04 23:07:00,6.5,-2.7,29.93,SSE,152,0.0,0.0,65,0.00,,,0.00,VWS V14.01,2013-02-05 04:07:00,
2013-02-04 23:12:00,6.4,-3.2,29.93,SSE,152,0.0,1.0,64,0.00,,,0.00,VWS V14.01,2013-02-05 04:12:00,
2013-02-04 23:17:00,6.3,-3.6,29.93,SSE,152,0.0,0.0,63,0.00,,,0.00,VWS V14.01,2013-02-05 04:17:00,
2013-02-04 23:22:00,6.2,-3.3,29.93,SSE,152,0.0,1.0,64,0.00,,,0.00,VWS V14.01,2013-02-05 04:22:00,
2013-02-04 23:27:00,6.1,-3.5,29.94,SSE,152,0.0,0.0,64,0.00,,,0.00,VWS V14.01,2013-02-05 04:27:00,
2013-02-04 23:32:00,5.9,-3.6,29.94,SSE,152,0.0,1.0,64,0.00,,,0.00,VWS V14.01,2013-02-05 04:32:00,
2013-02-04 23:37:00,5.7,-3.8,29.94,SSE,152,0.0,1.0,64,0.00,,,0.00,VWS V14.01,2013-02-05 04:37:00,
2013-02-04 23:42:00,5.6,-3.9,29.94,SSE,152,0.0,1.0,64,0.00,,,0.00,VWS V14.01,2013-02-05 04:42:00,
2013-02-04 23:47:00,5.6,-4.3,29.94,SSE,152,0.0,0.0,63,0.00,,,0.00,VWS V14.01,2013-02-05 04:47:00,
2013-02-04 23:52:00,5.4,-4.4,29.94,SSE,152,0.0,0.0,63,0.00,,,0.00,VWS V14.01,2013-02-05 04:52:00,
2013-02-04 23:57:00,5.3,-4.2,29.94,SE,134,0.0,4.0,64,0.00,,,0.00,VWS V14.01,2013-02-05 04:57:00,